Latest Weather Observations for Munglinup West

IDW60801

Issued at 6:02 pm WST Saturday 5 September 2015 (issued every 30 minutes, with the page automatically refreshed every 10 minutes)

About weather observations | Map of weather stations | Latest weather observations for WA | Other Formats
Station Details ID: 012044 Name: MUNGLINUP WEST Lat: -33.55 Lon: 120.70 Height: 220.0 m
Data from the previous 72 hours. | See also: Recent months at Munglinup West
Date/Time
WST
Temp
°C
App
Temp
°C
Dew
Point
Rel
Hum
%
Delta-T
°C
Wind Press
QNH
hPa
Press
MSL
hPa
Rain
since 9 am
mm
Dir
 
Spd
km/h
Gust
km/h
Spd
kts
Gust
kts
05/06:00pm 11.3 7.5 7.6 78 1.8 SW 17 24 9 13 1021.8 1021.7 0.4
05/05:30pm 11.6 7.2 7.3 75 2.1 SW 20 32 11 17 1021.3 1021.2 0.4
05/05:00pm 12.8 7.9 8.3 74 2.2 SSW 24 35 13 19 1020.6 1020.5 0.4
05/04:30pm 13.3 7.9 8.0 70 2.7 SW 26 37 14 20 1019.9 1019.7 0.4
05/04:00pm 13.4 7.0 8.7 73 2.4 SW 32 43 17 23 1019.4 1019.3 0.4
05/03:30pm 14.6 9.3 9.8 73 2.5 SSW 28 39 15 21 1018.8 1018.7 0.4
05/03:00pm 13.9 8.1 9.3 74 2.4 SW 30 43 16 23 1018.6 1018.5 0.4
05/02:30pm 14.8 8.7 10.6 76 2.2 SW 33 46 18 25 1018.1 1018.0 0.4
05/02:00pm 16.1 11.8 11.9 76 2.3 WSW 26 35 14 19 1017.4 1017.3 0.4
05/01:30pm 16.0 12.2 11.0 72 2.7 WSW 22 32 12 17 1017.3 1017.2 0.0
05/01:00pm 14.8 10.8 11.8 82 1.6 WSW 24 35 13 19 1017.5 1017.4 0.0
05/12:30pm 14.9 9.7 11.7 81 1.7 SW 30 43 16 23 1017.6 1017.5 0.0
05/12:10pm 15.8 9.4 9.5 66 3.3 WSW 33 57 18 31 1017.4 1017.3 0.0
05/12:00pm 16.7 10.4 8.9 60 4.1 WSW 32 43 17 23 1017.3 1017.2 0.0
05/11:30am 16.8 10.5 9.0 60 4.1 WSW 32 43 17 23 1017.1 1017.0 0.0
05/11:04am 17.0 11.3 9.9 63 3.8 W 30 50 16 27 1017.2 1017.1 0.0
05/11:00am 16.5 10.1 9.4 63 3.7 W 33 50 18 27 1017.2 1017.1 0.0
05/10:32am 16.6 10.2 9.3 62 3.8 W 33 52 18 28 1017.2 1017.1 0.0
05/10:30am 16.5 9.7 9.2 62 3.8 W 35 52 19 28 1017.2 1017.1 0.0
05/10:19am 17.1 10.7 9.5 61 4.0 W 33 54 18 29 1017.0 1016.9 0.0
05/10:00am 16.4 10.1 9.8 65 3.5 WSW 33 44 18 24 1017.0 1016.9 0.0
05/09:30am 15.5 9.9 10.3 71 2.8 W 30 43 16 23 1017.0 1016.9 0.0
05/09:00am 15.0 9.4 10.0 72 2.6 W 30 37 16 20 1016.9 1016.8 0.0
05/08:30am 14.3 9.9 10.5 78 2.0 W 24 33 13 18 1016.7 1016.6 0.0
05/08:00am 12.8 10.0 11.2 90 0.9 WNW 17 24 9 13 1016.7 1016.6 0.0
05/07:30am 10.9 9.2 10.0 94 0.5 NW 9 13 5 7 1016.5 1016.4 0.0
05/07:00am 11.0 9.3 9.9 93 0.6 WNW 9 13 5 7 1016.0 1015.8 0.0
05/06:30am 11.3 8.6 10.2 93 0.6 W 15 19 8 10 1015.8 1015.6 0.0
05/06:00am 11.1 9.4 9.7 91 0.7 WNW 9 13 5 7 1015.4 1015.2 0.0
05/05:30am 11.8 10.5 9.9 88 1.0 WNW 7 15 4 8 1015.4 1015.2 0.0
05/05:00am 12.3 10.7 10.2 87 1.1 WNW 9 17 5 9 1015.1 1014.9 0.0
05/04:30am 12.5 10.8 10.0 85 1.3 NW 9 11 5 6 1014.8 1014.7 0.0
05/04:00am 12.9 10.8 9.7 81 1.7 NW 11 19 6 10 1014.3 1014.2 0.0
05/03:30am 13.3 10.9 9.9 80 1.8 WNW 13 20 7 11 1014.2 1014.1 0.0
05/03:00am 13.4 11.2 9.3 76 2.1 WNW 11 17 6 9 1014.1 1014.0 0.0
05/02:30am 13.1 11.1 8.8 75 2.2 NW 9 15 5 8 1014.2 1014.1 0.0
05/02:00am 13.5 11.1 8.8 73 2.4 NW 11 13 6 7 1014.4 1014.3 0.0
05/01:30am 13.4 11.3 8.3 71 2.6 NW 9 13 5 7 1014.5 1014.4 0.0
05/01:00am 13.6 11.4 7.8 68 2.9 NW 9 11 5 6 1014.3 1014.2 0.0
05/12:30am 13.9 11.5 7.0 63 3.4 NW 9 11 5 6 1014.4 1014.3 0.0
05/12:00am 13.9 11.0 6.5 61 3.6 NW 11 15 6 8 1014.3 1014.2 0.0
 
Date/Time
WST
Temp
°C
App
Temp
°C
Dew
Point
Rel
Hum
%
Delta-T
°C
Wind Press
QNH
hPa
Press
MSL
hPa
Rain
since 9 am
mm
Dir
 
Spd
km/h
Gust
km/h
Spd
kts
Gust
kts
04/11:30pm 13.3 11.0 5.5 59 3.7 NNW 7 11 4 6 1014.5 1014.4 0.0
04/11:00pm 13.5 11.0 4.6 55 4.1 NNW 7 9 4 5 1015.2 1015.0 0.0
04/10:30pm 14.4 11.5 4.4 51 4.7 NW 9 13 5 7 1015.7 1015.5 0.0
04/10:00pm 14.7 11.4 4.7 51 4.7 WNW 11 15 6 8 1015.9 1015.7 0.0
04/09:30pm 14.1 10.4 4.4 52 4.5 W 13 17 7 9 1016.1 1015.9 0.0
04/09:00pm 15.0 10.6 2.9 44 5.5 W 15 19 8 10 1015.7 1015.5 0.0
04/08:30pm 16.2 12.2 0.7 35 6.8 WNW 11 15 6 8 1015.3 1015.1 0.0
04/08:00pm 16.5 12.8 0.2 33 7.1 NW 9 13 5 7 1014.7 1014.6 0.0
04/07:30pm 16.8 12.7 0.0 32 7.3 NW 11 15 6 8 1014.5 1014.4 0.0
04/07:00pm 17.3 13.2 -0.4 30 7.7 NW 11 13 6 7 1014.3 1014.2 0.0
04/06:30pm 17.9 13.7 -0.8 28 8.1 NW 11 15 6 8 1014.3 1014.2 0.0
04/06:00pm 18.6 14.0 -1.3 26 8.6 NW 13 19 7 10 1014.1 1014.0 0.0
04/05:30pm 19.8 14.7 -1.9 23 9.3 NW 15 22 8 12 1013.7 1013.6 0.0
04/05:00pm 21.1 15.7 -1.4 22 9.9 WNW 17 24 9 13 1013.6 1013.5 0.0
04/04:30pm 22.3 15.9 -1.7 20 10.6 WNW 22 33 12 18 1013.3 1013.2 0.0
04/04:00pm 23.0 17.3 0.8 23 10.3 WNW 20 32 11 17 1013.0 1012.9 0.0
04/03:30pm 23.8 17.6 -0.5 20 11.1 WNW 22 39 12 21 1013.1 1013.0 0.0
04/03:00pm 24.4 17.7 -1.4 18 11.6 NW 24 35 13 19 1012.8 1012.7 0.0
04/02:30pm 23.4 16.6 0.5 22 10.6 NW 26 44 14 24 1013.2 1013.1 0.0
04/02:00pm 24.1 18.5 3.4 26 10.2 WNW 22 33 12 18 1013.2 1013.1 0.0
04/01:30pm 24.4 17.1 0.0 20 11.3 NW 28 39 15 21 1013.4 1013.3 0.0
04/01:22pm 24.4 17.4 1.9 23 10.8 WNW 28 46 15 25 1013.5 1013.4 0.0
04/01:00pm 24.7 18.6 2.8 24 10.7 NNW 24 35 13 19 1013.7 1013.6 0.0
04/12:30pm 24.0 17.6 3.3 26 10.2 NNW 26 43 14 23 1014.2 1014.1 0.0
04/12:00pm 23.2 17.4 4.2 29 9.4 NNW 24 39 13 21 1015.0 1014.8 0.0
04/11:30am 22.5 16.7 4.5 31 8.9 N 24 37 13 20 1015.7 1015.5 0.0
04/11:00am 21.7 14.7 3.9 31 8.7 N 30 43 16 23 1016.2 1016.1 0.0
04/10:30am 20.9 15.0 5.7 37 7.6 N 26 39 14 21 1016.6 1016.5 0.0
04/10:00am 18.9 11.8 5.7 42 6.5 N 32 43 17 23 1016.9 1016.8 0.0
04/09:30am 17.3 10.3 5.9 47 5.6 N 32 46 17 25 1017.3 1017.2 0.0
04/09:00am 15.4 8.4 6.2 54 4.5 NNE 32 48 17 26 1017.4 1017.3 0.2
04/08:30am 13.9 7.4 6.3 60 3.7 NNE 30 43 16 23 1017.6 1017.5 0.2
04/08:00am 12.6 6.5 6.4 66 3.0 NNE 28 43 15 23 1018.1 1018.0 0.2
04/07:30am 11.0 4.7 5.7 70 2.5 NNE 28 43 15 23 1018.2 1018.1 0.2
04/07:00am 9.6 3.6 5.4 75 1.9 NNE 26 33 14 18 1018.2 1018.1 0.2
04/06:30am 8.8 3.2 5.2 78 1.6 NNE 24 35 13 19 1018.2 1018.1 0.2
04/06:00am 8.3 3.0 5.1 80 1.4 NNE 22 30 12 16 1018.2 1018.1 0.2
04/05:30am 8.3 3.0 5.2 81 1.4 NNE 22 30 12 16 1018.2 1018.1 0.2
04/05:00am 8.1 2.8 5.2 82 1.3 NNE 22 28 12 15 1018.3 1018.2 0.2
04/04:30am 7.3 2.4 5.1 86 1.0 NNE 20 26 11 14 1018.5 1018.4 0.2
04/04:00am 7.3 2.4 5.3 87 0.9 NE 20 26 11 14 1018.5 1018.4 0.2
04/03:30am 7.0 2.1 5.3 89 0.8 NNE 20 28 11 15 1018.5 1018.4 0.2
04/03:00am 7.6 2.8 5.7 88 0.9 NE 20 24 11 13 1018.8 1018.7 0.2
04/02:30am 7.8 3.4 6.4 91 0.6 NE 19 24 10 13 1019.0 1018.9 0.2
04/02:00am 7.7 3.3 6.6 93 0.5 NE 19 22 10 12 1019.5 1019.4 0.2
04/01:30am 8.1 3.8 7.2 94 0.4 NE 19 24 10 13 1020.0 1019.8 0.2
04/01:00am 8.3 4.1 7.5 95 0.4 NE 19 24 10 13 1020.4 1020.3 0.2
04/12:30am 8.7 4.4 7.9 95 0.4 ENE 20 28 11 15 1020.7 1020.6 0.2
04/12:00am 8.6 4.5 8.0 96 0.3 ENE 19 24 10 13 1020.9 1020.8 0.2
 
Date/Time
WST
Temp
°C
App
Temp
°C
Dew
Point
Rel
Hum
%
Delta-T
°C
Wind Press
QNH
hPa
Press
MSL
hPa
Rain
since 9 am
mm
Dir
 
Spd
km/h
Gust
km/h
Spd
kts
Gust
kts
03/11:30pm 8.7 4.5 8.1 96 0.3 ENE 20 26 11 14 1021.1 1021.0 0.2
03/11:00pm 8.8 4.6 8.2 96 0.3 ENE 20 28 11 15 1021.1 1021.0 0.2
03/10:30pm 8.8 4.8 8.4 97 0.2 ENE 19 24 10 13 1021.6 1021.5 0.2
03/10:00pm 8.9 4.7 8.3 96 0.3 ENE 20 26 11 14 1021.8 1021.7 0.2
03/09:30pm 9.2 4.7 8.6 96 0.3 ENE 22 28 12 15 1022.2 1022.1 0.2
03/09:00pm 9.3 4.8 8.7 96 0.3 E 22 28 12 15 1022.4 1022.3 0.2
03/08:30pm 9.5 5.4 8.7 95 0.4 E 20 26 11 14 1022.6 1022.5 0.2
03/08:00pm 9.8 5.8 9.0 95 0.4 E 20 30 11 16 1023.0 1022.9 0.2
03/07:30pm 9.7 6.2 8.9 95 0.4 ESE 17 20 9 11 1023.5 1023.4 0.2
03/07:00pm 10.1 7.0 9.0 93 0.5 ESE 15 22 8 12 1023.4 1023.3 0.2
03/06:30pm 10.8 7.4 9.2 90 0.8 ESE 17 22 9 12 1023.3 1023.2 0.2
03/06:00pm 11.6 9.2 8.5 81 1.5 ESE 11 20 6 11 1023.1 1023.0 0.2
03/05:30pm 13.0 10.6 8.7 75 2.2 E 11 13 6 7 1023.0 1022.9 0.2
03/05:00pm 14.8 13.0 9.4 70 2.8 E 9 13 5 7 1023.0 1022.9 0.2
03/04:30pm 15.7 13.8 8.9 64 3.5 E 9 13 5 7 1022.9 1022.8 0.2
03/04:00pm 16.8 14.3 8.0 56 4.5 ENE 11 15 6 8 1022.9 1022.8 0.2
03/03:30pm 16.9 15.1 7.8 55 4.6 ENE 7 11 4 6 1023.1 1023.0 0.2
03/03:00pm 16.7 14.8 6.5 51 5.0 N 6 9 3 5 1023.3 1023.2 0.2
03/02:30pm 16.8 13.6 5.1 46 5.7 NNE 11 17 6 9 1023.1 1023.0 0.2
03/02:00pm 17.0 15.1 6.5 50 5.2 NNE 6 11 3 6 1023.1 1023.0 0.2
03/01:30pm 18.0 15.1 6.5 47 5.8 N 11 20 6 11 1023.1 1023.0 0.2
03/01:00pm 17.4 13.3 6.0 47 5.6 NNE 17 28 9 15 1023.5 1023.4 0.2
03/12:30pm 17.6 14.1 7.1 50 5.3 N 15 24 8 13 1024.1 1024.1 0.0
03/12:00pm 17.0 12.9 6.2 49 5.3 NNE 17 26 9 14 1024.6 1024.5 0.0
03/11:30am 16.4 12.6 7.6 56 4.5 NNE 17 26 9 14 1025.2 1025.1 0.0
03/11:00am 15.3 10.9 7.6 60 3.9 NNE 20 28 11 15 1025.8 1025.7 0.0
03/10:30am 14.6 10.2 7.2 61 3.7 NNE 20 32 11 17 1026.2 1026.1 0.0
03/10:00am 13.7 9.4 7.7 67 3.0 NNE 20 28 11 15 1026.6 1026.5 0.0
03/09:30am 12.8 9.4 9.1 78 1.9 NNE 17 24 9 13 1026.9 1026.8 0.0
03/09:00am 11.1 7.9 10.0 93 0.6 NNE 17 26 9 14 1027.1 1027.0 0.6
03/08:30am 9.4 6.1 9.4 100 0.0 NNE 17 24 9 13 1027.4 1027.3 0.6
03/08:00am 7.9 4.6 7.9 100 0.0 NE 15 24 8 13 1027.4 1027.3 0.6
03/07:30am 7.0 4.2 7.0 100 0.0 NE 11 17 6 9 1027.3 1027.2 0.6
03/07:00am 5.1 1.9 5.1 100 0.0 NE 11 13 6 7 1027.1 1027.0 0.6
03/06:30am 4.3 1.0 4.3 100 0.0 NE 11 13 6 7 1026.7 1026.6 0.6
03/06:00am 4.7 1.4 4.7 100 0.0 NE 11 11 6 6 1026.6 1026.5 0.6
03/05:30am 4.2 0.5 4.2 100 0.0 NE 13 15 7 8 1026.4 1026.3 0.6
03/05:00am 3.7 0.6 3.7 100 0.0 NNE 9 11 5 6 1026.4 1026.3 0.6
03/04:30am 3.3 1.1 3.3 100 0.0 N 4 6 2 3 1026.5 1026.4 0.6
03/04:00am 3.1 1.6 3.0 99 0.0 CALM 0 0 0 0 1026.2 1026.1 0.6
03/03:30am 3.3 1.5 3.2 99 0.0 SW 2 2 1 1 1026.1 1026.0 0.6
03/03:00am 3.2 0.6 3.1 99 0.0 SW 6 6 3 3 1026.1 1026.0 0.6
03/02:30am 5.2 2.4 5.2 100 0.0 E 9 11 5 6 1026.0 1025.9 0.6
03/02:00am 4.6 1.7 4.5 99 0.0 E 9 9 5 5 1026.2 1026.1 0.6
03/01:30am 5.0 1.8 4.9 99 0.0 E 11 11 6 6 1026.5 1026.4 0.6
03/01:00am 4.9 1.6 4.6 98 0.1 E 11 11 6 6 1026.5 1026.4 0.6
03/12:30am 4.5 1.5 4.2 98 0.1 E 9 11 5 6 1026.5 1026.4 0.6
03/12:00am 4.0 0.9 3.6 97 0.2 SSE 9 11 5 6 1026.8 1026.7 0.6
 
Date/Time
WST
Temp
°C
App
Temp
°C
Dew
Point
Rel
Hum
%
Delta-T
°C
Wind Press
QNH
hPa
Press
MSL
hPa
Rain
since 9 am
mm
Dir
 
Spd
km/h
Gust
km/h
Spd
kts
Gust
kts
02/11:30pm 4.6 3.3 4.0 96 0.3 CALM 0 4 0 2 1027.1 1027.0 0.6
02/11:00pm 6.0 3.7 5.6 97 0.2 ENE 7 7 4 4 1027.3 1027.2 0.6
02/10:30pm 6.9 4.8 6.5 97 0.2 NE 7 7 4 4 1027.4 1027.3 0.6
02/10:00pm 6.9 4.8 6.5 97 0.2 NE 7 9 4 5 1027.5 1027.4 0.6
02/09:30pm 6.5 3.9 5.9 96 0.3 ENE 9 9 5 5 1027.6 1027.5 0.6
02/09:00pm 6.5 4.2 5.8 95 0.3 E 7 9 4 5 1027.7 1027.6 0.6
02/08:30pm 7.1 4.9 6.4 95 0.3 NNE 7 7 4 4 1027.7 1027.6 0.6
02/08:00pm 7.4 5.8 6.5 94 0.4 NE 4 4 2 2 1027.6 1027.5 0.6
02/07:30pm 7.9 6.0 6.8 93 0.5 ENE 6 6 3 3 1027.1 1027.0 0.6
02/07:00pm 8.7 6.8 7.6 93 0.5 ENE 7 15 4 8 1026.7 1026.6 0.6
02/06:30pm 8.3 5.5 7.1 92 0.6 ESE 11 15 6 8 1026.5 1026.4 0.6

Other Formats:

Comma delimited format used in spreadsheet applications
http://www.bom.gov.au/fwo/IDW60801/IDW60801.95644.axf

JavaScript Object Notation format (JSON) in row-major order
http://www.bom.gov.au/fwo/IDW60801/IDW60801.95644.json